createdAt,value
2023-04-02T00:01:47.059Z,0.40
2023-04-02T00:04:16.197Z,0.35
2023-04-02T00:06:46.145Z,0.30
2023-04-02T00:09:18.025Z,0.47
2023-04-02T00:11:46.471Z,0.30
2023-04-02T00:14:23.117Z,0.38
2023-04-02T00:16:50.492Z,0.25
2023-04-02T00:19:19.540Z,0.40
2023-04-02T00:21:46.924Z,0.25
2023-04-02T00:24:15.572Z,0.25
2023-04-02T00:26:46.251Z,0.20
2023-04-02T00:31:42.188Z,0.20
2023-04-02T00:34:11.554Z,0.38
2023-04-02T00:36:38.235Z,0.15
2023-04-02T00:39:08.522Z,0.88
2023-04-02T00:41:38.778Z,0.38
2023-04-02T00:44:06.021Z,0.40
2023-04-02T00:46:49.493Z,0.30
2023-04-02T00:49:40.670Z,0.30
2023-04-02T00:52:11.872Z,0.20
2023-04-02T00:54:52.351Z,0.20
2023-04-02T00:57:25.619Z,0.20
2023-04-02T01:00:02.493Z,0.20
2023-04-02T01:02:33.152Z,0.10
2023-04-02T01:07:45.309Z,0.30
2023-04-02T01:10:29.069Z,0.25
2023-04-02T01:13:07.976Z,0.10
2023-04-02T01:15:41.547Z,0.10
2023-04-02T01:18:18.682Z,0.10
2023-04-02T01:20:51.661Z,0.10
2023-04-02T01:23:21.342Z,0.00
2023-04-02T01:25:54.485Z,0.07
2023-04-02T01:28:25.506Z,0.10
2023-04-02T01:30:54.357Z,0.10
2023-04-02T01:33:23.174Z,0.10
2023-04-02T01:35:55.481Z,0.10
2023-04-02T01:38:27.302Z,0.00
2023-04-02T01:40:59.699Z,0.28
2023-04-02T01:43:52.631Z,0.00
2023-04-02T01:46:30.296Z,0.10
2023-04-02T01:48:57.128Z,0.20
2023-04-02T01:51:28.732Z,0.10
2023-04-02T01:53:56.608Z,0.22
2023-04-02T01:56:23.144Z,0.50
2023-04-02T01:58:49.983Z,0.10
2023-04-02T02:01:18.985Z,0.03
2023-04-02T02:03:46.563Z,0.10
2023-04-02T02:06:14.694Z,0.10
2023-04-02T02:08:44.248Z,0.10
2023-04-02T02:11:14.179Z,0.10
2023-04-02T02:13:46.573Z,0.10
2023-04-02T02:16:17.808Z,0.10
2023-04-02T02:18:46.579Z,0.10
2023-04-02T02:21:18.664Z,0.10
2023-04-02T02:23:45.480Z,0.10
2023-04-02T02:26:13.169Z,0.20
2023-04-02T02:28:42.621Z,0.10
2023-04-02T02:31:22.642Z,0.10
2023-04-02T02:33:54.152Z,0.10
2023-04-02T02:36:33.523Z,0.10
2023-04-02T02:39:01.094Z,0.10
2023-04-02T02:41:43.208Z,0.10
2023-04-02T02:44:10.041Z,0.15
2023-04-02T02:46:43.489Z,0.10
2023-04-02T02:49:15.093Z,0.10
2023-04-02T02:51:45.343Z,0.17
2023-04-02T02:54:18.656Z,0.10
2023-04-02T02:56:54.565Z,1.30
2023-04-02T02:59:22.707Z,0.25
2023-04-02T03:01:49.705Z,0.13
2023-04-02T03:04:23.258Z,0.10
2023-04-02T03:06:53.807Z,0.10
2023-04-02T03:09:22.355Z,0.20
2023-04-02T03:11:52.146Z,0.10
2023-04-02T03:14:25.048Z,0.10
2023-04-02T03:16:58.577Z,0.13
2023-04-02T03:19:35.519Z,0.10
2023-04-02T03:22:07.621Z,0.10
2023-04-02T03:24:56.324Z,0.20
2023-04-02T03:27:26.187Z,0.10
2023-04-02T03:30:04.005Z,0.10
2023-04-02T03:32:37.508Z,0.20
2023-04-02T03:35:25.540Z,0.10
2023-04-02T03:37:55.927Z,0.10
2023-04-02T03:40:29.133Z,0.10
2023-04-02T03:43:01.361Z,0.10
2023-04-02T03:45:30.362Z,0.10
2023-04-02T03:48:01.053Z,0.20
2023-04-02T03:50:50.821Z,0.10
2023-04-02T03:53:17.704Z,0.20
2023-04-02T03:55:44.520Z,0.15
2023-04-02T03:58:38.367Z,0.45
2023-04-02T04:01:26.363Z,0.13
2023-04-02T04:04:01.904Z,0.15
2023-04-02T04:06:28.889Z,0.10
2023-04-02T04:08:59.300Z,0.10
2023-04-02T04:11:28.433Z,0.15
2023-04-02T04:14:07.577Z,0.10
2023-04-02T04:16:40.198Z,0.10
2023-04-02T04:19:18.258Z,0.50
2023-04-02T04:21:46.508Z,0.20
2023-04-02T04:24:24.808Z,0.20
2023-04-02T04:27:18.454Z,0.10
2023-04-02T04:29:49.385Z,0.10
2023-04-02T04:32:17.042Z,0.20
2023-04-02T04:34:51.590Z,0.10
2023-04-02T04:37:21.676Z,0.20
2023-04-02T04:39:51.032Z,0.20
2023-04-02T04:42:22.837Z,0.20
2023-04-02T04:45:11.163Z,0.20
2023-04-02T04:47:50.212Z,0.20
2023-04-02T04:50:21.970Z,0.30
2023-04-02T04:52:48.846Z,0.20
2023-04-02T04:55:26.898Z,0.20
2023-04-02T04:58:12.540Z,0.35
2023-04-02T05:00:50.957Z,0.25
2023-04-02T05:03:29.529Z,0.40
2023-04-02T05:06:03.652Z,0.55
2023-04-02T05:08:33.438Z,0.30
2023-04-02T05:11:03.518Z,0.57
2023-04-02T05:13:33.105Z,0.50
2023-04-02T05:16:19.774Z,0.40
2023-04-02T05:18:56.246Z,0.50
2023-04-02T05:21:36.514Z,0.50
2023-04-02T05:24:13.580Z,0.40
2023-04-02T05:26:41.899Z,0.43
2023-04-02T05:29:11.851Z,0.50
2023-04-02T05:31:54.351Z,0.60
2023-04-02T05:34:27.784Z,0.57
2023-04-02T05:36:55.770Z,0.77
2023-04-02T05:39:24.120Z,0.50
2023-04-02T05:42:06.447Z,2.67
2023-04-02T05:45:06.469Z,1.27
2023-04-02T05:47:33.685Z,0.50
2023-04-02T05:50:05.754Z,0.30
2023-04-02T05:52:43.859Z,0.30
2023-04-02T05:55:16.878Z,0.30
2023-04-02T05:58:01.143Z,0.40
2023-04-02T06:00:38.337Z,0.50
2023-04-02T06:03:13.997Z,0.50
2023-04-02T06:05:42.977Z,0.40
2023-04-02T06:08:14.881Z,0.40
2023-04-02T06:10:49.060Z,0.35
2023-04-02T06:13:19.703Z,0.52
2023-04-02T06:15:47.731Z,0.52
2023-04-02T06:18:23.417Z,0.52
2023-04-02T06:20:51.807Z,0.68
2023-04-02T06:23:38.202Z,0.35
2023-04-02T06:26:06.383Z,0.63
2023-04-02T06:28:40.444Z,0.40
2023-04-02T06:31:15.565Z,0.30
2023-04-02T06:33:43.616Z,0.30
2023-04-02T06:36:12.513Z,0.30
2023-04-02T06:38:40.996Z,0.22
2023-04-02T06:41:15.437Z,0.20
2023-04-02T06:44:04.456Z,0.22
2023-04-02T06:46:51.074Z,0.30
2023-04-02T06:49:42.361Z,0.20
2023-04-02T06:52:21.089Z,0.25
2023-04-02T06:54:48.259Z,0.30
2023-04-02T06:57:15.878Z,0.30
2023-04-02T06:59:45.142Z,0.20
2023-04-02T07:02:22.596Z,0.20
2023-04-02T07:04:49.374Z,0.20
2023-04-02T07:07:17.494Z,0.17
2023-04-02T07:09:46.177Z,0.65
2023-04-02T07:12:13.174Z,0.40
2023-04-02T07:14:40.962Z,0.20
2023-04-02T07:17:14.265Z,0.10
2023-04-02T07:19:41.915Z,0.20
2023-04-02T07:22:08.405Z,0.10
2023-04-02T07:24:39.201Z,0.10
2023-04-02T07:27:05.800Z,0.20
2023-04-02T07:29:32.378Z,0.20
2023-04-02T07:31:58.860Z,0.30
2023-04-02T07:34:25.324Z,0.10
2023-04-02T07:36:52.504Z,0.10
2023-04-02T07:39:19.192Z,0.10
2023-04-02T07:41:56.390Z,0.30
2023-04-02T07:44:23.121Z,0.20
2023-04-02T07:46:49.714Z,0.10
2023-04-02T07:49:16.298Z,0.10
2023-04-02T07:51:42.914Z,0.10
2023-04-02T07:54:10.315Z,0.10
2023-04-02T07:56:37.153Z,0.10
2023-04-02T07:59:04.721Z,0.10
2023-04-02T08:01:35.211Z,0.10
2023-04-02T08:04:02.898Z,0.10
2023-04-02T08:06:30.060Z,0.10
2023-04-02T08:08:57.214Z,0.20
2023-04-02T08:11:23.864Z,0.10
2023-04-02T08:13:50.649Z,0.15
2023-04-02T08:16:17.128Z,0.08
2023-04-02T08:18:43.632Z,0.10
2023-04-02T08:21:10.590Z,0.10
2023-04-02T08:23:37.780Z,0.10
2023-04-02T08:26:04.992Z,0.10
2023-04-02T08:28:31.607Z,0.10
2023-04-02T08:30:58.104Z,0.70
2023-04-02T08:33:24.777Z,0.20
2023-04-02T08:35:51.684Z,0.10
2023-04-02T08:38:19.354Z,0.20
2023-04-02T08:40:48.056Z,0.20
2023-04-02T08:43:23.982Z,0.10
2023-04-02T08:46:08.947Z,0.10
2023-04-02T08:48:40.174Z,0.20
2023-04-02T08:51:08.836Z,0.10
2023-04-02T08:53:37.241Z,0.10
2023-04-02T08:56:17.606Z,0.30
2023-04-02T08:58:44.256Z,0.30
2023-04-02T09:01:17.294Z,0.20
2023-04-02T09:03:46.337Z,0.20
2023-04-02T09:06:15.372Z,0.28
2023-04-02T09:08:44.051Z,0.20
2023-04-02T09:11:24.382Z,0.20
2023-04-02T09:13:54.708Z,0.17
2023-04-02T09:18:50.095Z,0.28
2023-04-02T09:21:34.565Z,0.25
2023-04-02T09:24:02.815Z,0.10
2023-04-02T09:26:32.100Z,0.70
2023-04-02T09:29:01.462Z,0.20
2023-04-02T09:31:39.399Z,0.10
2023-04-02T09:34:29.761Z,0.20
2023-04-02T09:36:56.785Z,0.10
2023-04-02T09:39:26.278Z,0.17
2023-04-02T09:42:02.759Z,0.13
2023-04-02T09:44:32.496Z,0.25
2023-04-02T09:47:03.608Z,0.20
2023-04-02T09:49:31.661Z,0.15
2023-04-02T09:52:16.723Z,0.20
2023-04-02T09:54:43.678Z,0.25
2023-04-02T09:57:24.115Z,0.10
2023-04-02T10:00:25.120Z,0.20
2023-04-02T10:03:14.461Z,0.20
2023-04-02T10:05:41.780Z,0.10
2023-04-02T10:08:15.610Z,0.20
2023-04-02T10:10:43.481Z,0.10
2023-04-02T10:13:22.239Z,0.20
2023-04-02T10:16:09.027Z,0.10
2023-04-02T10:18:44.779Z,0.17
2023-04-02T10:21:12.943Z,0.20
2023-04-02T10:23:39.667Z,0.20
2023-04-02T10:26:29.597Z,0.10
2023-04-02T10:29:12.606Z,0.20
2023-04-02T10:31:58.138Z,0.20
2023-04-02T10:34:30.333Z,0.28
2023-04-02T10:36:59.539Z,0.20
2023-04-02T10:39:46.296Z,0.17
2023-04-02T10:42:19.186Z,0.20
2023-04-02T10:44:52.340Z,0.20
2023-04-02T10:47:39.309Z,0.10
2023-04-02T10:50:08.940Z,0.10
2023-04-02T10:52:45.977Z,0.10
2023-04-02T10:55:21.454Z,0.20
2023-04-02T10:57:47.999Z,0.15
2023-04-02T11:00:17.729Z,1.05
2023-04-02T11:02:58.191Z,0.40
2023-04-02T11:05:44.426Z,0.20
2023-04-02T11:08:18.217Z,0.47
2023-04-02T11:10:48.054Z,0.20
2023-04-02T11:13:33.538Z,0.20
2023-04-02T11:16:00.337Z,0.40
2023-04-02T11:18:35.862Z,0.35
2023-04-02T11:21:04.493Z,0.20
2023-04-02T11:23:54.554Z,0.68
2023-04-02T11:26:37.267Z,0.30
2023-04-02T11:29:09.238Z,0.30
2023-04-02T11:31:36.960Z,0.20
2023-04-02T11:34:03.484Z,0.32
2023-04-02T11:36:49.021Z,0.20
2023-04-02T11:39:35.600Z,0.20
2023-04-02T11:42:04.035Z,0.10
2023-04-02T11:44:30.727Z,0.20
2023-04-02T11:47:23.413Z,0.17
2023-04-02T11:49:52.751Z,0.30
2023-04-02T11:52:20.999Z,0.30
2023-04-02T11:54:54.866Z,0.17
2023-04-02T11:57:44.479Z,0.20
2023-04-02T12:00:30.043Z,0.27
2023-04-02T12:03:13.540Z,0.20
2023-04-02T12:05:43.423Z,0.20
2023-04-02T12:08:31.321Z,0.30
2023-04-02T12:10:57.911Z,0.30
2023-04-02T12:13:39.724Z,0.20
2023-04-02T12:16:13.130Z,0.20
2023-04-02T12:18:43.738Z,0.20
2023-04-02T12:21:15.682Z,0.20
2023-04-02T12:23:44.919Z,0.20
2023-04-02T12:26:30.350Z,0.40
2023-04-02T12:29:15.478Z,0.30
2023-04-02T12:31:51.315Z,0.20
2023-04-02T12:34:22.230Z,0.75
2023-04-02T12:36:53.104Z,0.20
2023-04-02T12:39:19.711Z,0.30
2023-04-02T12:41:46.221Z,0.20
2023-04-02T12:44:17.016Z,0.10
2023-04-02T12:46:44.013Z,0.15
2023-04-02T12:49:25.903Z,0.20
2023-04-02T12:51:52.988Z,0.20
2023-04-02T12:54:20.704Z,0.20
2023-04-02T12:56:48.316Z,0.10
2023-04-02T12:59:31.708Z,0.10
2023-04-02T13:01:59.833Z,0.17
2023-04-02T13:04:26.580Z,0.20
2023-04-02T13:06:55.085Z,0.13
2023-04-02T13:09:30.826Z,0.10
2023-04-02T13:11:57.600Z,0.20
2023-04-02T13:14:24.321Z,0.20
2023-04-02T13:16:50.896Z,0.30
2023-04-02T13:19:17.472Z,0.22
2023-04-02T13:21:45.032Z,0.20
2023-04-02T13:24:21.923Z,0.25
2023-04-02T13:26:49.721Z,0.50
2023-04-02T13:29:28.601Z,0.20
2023-04-02T13:31:59.978Z,0.17
2023-04-02T13:34:27.128Z,0.30
2023-04-02T13:36:53.779Z,0.20
2023-04-02T13:39:23.060Z,0.20
2023-04-02T13:42:08.888Z,0.20
2023-04-02T13:44:37.553Z,0.15
2023-04-02T13:47:04.376Z,0.13
2023-04-02T13:49:31.269Z,1.23
2023-04-02T13:51:59.150Z,0.25
2023-04-02T13:54:33.808Z,0.80
2023-04-02T13:57:00.620Z,0.65
2023-04-02T13:59:27.402Z,0.40
2023-04-02T14:01:56.306Z,0.20
2023-04-02T14:04:31.577Z,0.50
2023-04-02T14:07:14.513Z,0.30
2023-04-02T14:09:47.975Z,1.17
2023-04-02T14:12:23.841Z,0.30
2023-04-02T14:15:08.706Z,0.55
2023-04-02T14:17:57.205Z,0.55
2023-04-02T14:20:42.169Z,0.73
2023-04-02T14:23:27.403Z,0.63
2023-04-02T14:26:00.559Z,0.30
2023-04-02T14:28:45.895Z,0.30
2023-04-02T14:31:22.364Z,0.43
2023-04-02T14:33:55.020Z,0.70
2023-04-02T14:36:22.061Z,0.40
2023-04-02T14:38:54.390Z,0.38
2023-04-02T14:41:33.575Z,0.43
2023-04-02T14:44:07.287Z,0.32
2023-04-02T14:46:37.490Z,0.20
2023-04-02T14:51:38.138Z,0.20
2023-04-02T14:54:04.759Z,0.50
2023-04-02T14:56:36.460Z,0.40
2023-04-02T14:59:23.207Z,0.40
2023-04-02T15:01:51.896Z,0.40
2023-04-02T15:04:26.736Z,0.47
2023-04-02T15:06:56.508Z,1.98
2023-04-02T15:09:35.583Z,0.43
2023-04-02T15:12:07.200Z,0.35
2023-04-02T15:14:39.212Z,0.65
2023-04-02T15:17:06.330Z,0.63
2023-04-02T15:19:32.831Z,0.60
2023-04-02T15:22:18.168Z,0.40
2023-04-02T15:24:56.797Z,0.20
2023-04-02T15:27:29.263Z,0.30
2023-04-02T15:30:09.008Z,0.20
2023-04-02T15:32:39.306Z,0.37
2023-04-02T15:35:24.756Z,0.40
2023-04-02T15:37:57.917Z,0.88
2023-04-02T15:40:24.844Z,0.70
2023-04-02T15:42:55.824Z,1.25
2023-04-02T15:45:25.903Z,0.88
2023-04-02T15:47:52.496Z,0.80
2023-04-02T15:50:38.157Z,0.40
2023-04-02T15:53:23.499Z,0.40
2023-04-02T15:55:51.609Z,0.30
2023-04-02T15:58:36.823Z,0.40
2023-04-02T16:01:08.501Z,0.40
2023-04-02T16:03:52.629Z,0.40
2023-04-02T16:06:32.478Z,0.52
2023-04-02T16:09:07.116Z,0.77
2023-04-02T16:11:34.338Z,0.43
2023-04-02T16:14:15.795Z,0.40
2023-04-02T16:16:42.839Z,0.30
2023-04-02T16:19:17.215Z,0.30
2023-04-02T16:22:02.518Z,0.40
2023-04-02T16:24:29.116Z,0.40
2023-04-02T16:27:17.472Z,0.50
2023-04-02T16:29:55.096Z,0.35
2023-04-02T16:32:25.120Z,0.40
2023-04-02T16:35:19.287Z,0.30
2023-04-02T16:37:54.352Z,0.15
2023-04-02T16:40:29.769Z,0.20
2023-04-02T16:42:56.572Z,0.20
2023-04-02T16:45:31.157Z,0.20
2023-04-02T16:48:01.141Z,0.65
2023-04-02T16:50:39.955Z,0.30
2023-04-02T16:53:22.800Z,0.20
2023-04-02T16:56:08.092Z,0.20
2023-04-02T16:58:43.789Z,0.25
2023-04-02T17:01:21.707Z,0.20
2023-04-02T17:04:01.482Z,0.20
2023-04-02T17:06:31.264Z,0.38
2023-04-02T17:09:12.409Z,1.43
2023-04-02T17:11:49.851Z,0.40
2023-04-02T17:14:26.404Z,0.20
2023-04-02T17:16:59.104Z,0.20
2023-04-02T17:19:26.470Z,0.40
2023-04-02T17:21:56.583Z,0.20
2023-04-02T17:24:35.684Z,0.20
2023-04-02T17:27:11.052Z,0.30
2023-04-02T17:29:45.676Z,0.30
2023-04-02T17:32:16.643Z,0.32
2023-04-02T17:34:43.240Z,0.30
2023-04-02T17:37:20.432Z,0.30
2023-04-02T17:39:52.983Z,0.40
2023-04-02T17:42:19.460Z,0.43
2023-04-02T17:45:04.811Z,0.35
2023-04-02T17:47:34.242Z,0.40
2023-04-02T17:50:23.469Z,0.30
2023-04-02T17:52:59.097Z,0.60
2023-04-02T17:55:37.901Z,0.40
2023-04-02T17:58:19.506Z,0.60
2023-04-02T18:00:55.121Z,0.85
2023-04-02T18:03:40.569Z,0.50
2023-04-02T18:06:19.417Z,1.25
2023-04-02T18:08:49.243Z,1.50
2023-04-02T18:11:34.733Z,1.33
2023-04-02T18:14:07.237Z,1.13
2023-04-02T18:16:41.695Z,1.50
2023-04-02T18:19:29.391Z,1.20
2023-04-02T18:21:57.071Z,1.17
2023-04-02T18:24:32.784Z,1.20
2023-04-02T18:26:59.468Z,1.02
2023-04-02T18:29:26.036Z,1.08
2023-04-02T18:32:11.166Z,0.88
2023-04-02T18:34:37.712Z,0.85
2023-04-02T18:37:19.910Z,1.35
2023-04-02T18:40:05.231Z,0.93
2023-04-02T18:42:31.750Z,1.30
2023-04-02T18:45:07.865Z,1.23
2023-04-02T18:47:49.137Z,1.20
2023-04-02T18:50:23.970Z,1.33
2023-04-02T18:52:50.727Z,1.15
2023-04-02T18:55:20.453Z,1.35
2023-04-02T18:57:49.679Z,1.20
2023-04-02T19:00:16.164Z,1.63
2023-04-02T19:02:44.699Z,1.55
2023-04-02T19:05:17.385Z,1.42
2023-04-02T19:07:44.436Z,1.10
2023-04-02T19:10:21.525Z,1.00
2023-04-02T19:12:48.173Z,1.17
2023-04-02T19:15:16.088Z,1.13
2023-04-02T19:17:45.973Z,1.00
2023-04-02T19:20:30.481Z,0.80
2023-04-02T19:23:03.898Z,1.02
2023-04-02T19:25:39.600Z,0.90
2023-04-02T19:28:07.852Z,1.10
2023-04-02T19:30:41.167Z,0.90
2023-04-02T19:33:17.399Z,0.95
2023-04-02T19:35:47.726Z,0.95
2023-04-02T19:38:40.829Z,0.75
2023-04-02T19:41:12.280Z,0.88
2023-04-02T19:43:39.016Z,0.68
2023-04-02T19:46:06.158Z,0.88
2023-04-02T19:48:39.735Z,0.80
2023-04-02T19:51:06.602Z,1.00
2023-04-02T19:53:33.389Z,0.65
2023-04-02T19:56:00.173Z,0.98
2023-04-02T19:58:31.185Z,0.70
2023-04-02T20:00:58.317Z,0.82
2023-04-02T20:03:24.914Z,0.90
2023-04-02T20:05:51.432Z,0.90
2023-04-02T20:08:18.211Z,0.80
2023-04-02T20:10:45.269Z,0.73
2023-04-02T20:13:12.224Z,1.23
2023-04-02T20:15:39.250Z,0.80
2023-04-02T20:18:06.058Z,1.10
2023-04-02T20:20:32.819Z,1.33
2023-04-02T20:22:59.455Z,1.30
2023-04-02T20:25:26.100Z,1.30
2023-04-02T20:27:52.611Z,1.00
2023-04-02T20:30:19.309Z,1.45
2023-04-02T20:32:45.884Z,1.20
2023-04-02T20:35:12.563Z,1.00
2023-04-02T20:37:41.809Z,1.38
2023-04-02T20:40:09.984Z,1.00
2023-04-02T20:42:36.658Z,1.10
2023-04-02T20:45:05.180Z,0.85
2023-04-02T20:47:31.798Z,1.20
2023-04-02T20:49:58.341Z,1.20
2023-04-02T20:52:24.920Z,1.40
2023-04-02T20:54:51.718Z,1.70
2023-04-02T20:57:21.675Z,1.30
2023-04-02T20:59:48.458Z,1.10
2023-04-02T21:02:14.953Z,1.27
2023-04-02T21:04:41.582Z,1.50
2023-04-02T21:07:08.262Z,1.55
2023-04-02T21:09:34.813Z,1.45
2023-04-02T21:12:01.518Z,1.40
2023-04-02T21:14:31.333Z,1.20
2023-04-02T21:16:57.936Z,1.63
2023-04-02T21:19:24.421Z,1.60
2023-04-02T21:21:50.986Z,1.40
2023-04-02T21:24:17.439Z,1.60
2023-04-02T21:26:46.427Z,1.70
2023-04-02T21:29:13.095Z,1.52
2023-04-02T21:31:40.789Z,1.50
2023-04-02T21:34:08.368Z,1.20
2023-04-02T21:36:36.036Z,1.08
2023-04-02T21:39:04.815Z,1.80
2023-04-02T21:41:32.727Z,1.60
2023-04-02T21:44:00.278Z,0.98
2023-04-02T21:46:28.213Z,1.00
2023-04-02T21:48:56.395Z,1.10
2023-04-02T21:51:24.348Z,1.40
2023-04-02T21:53:51.013Z,1.17
2023-04-02T21:56:19.650Z,1.23
2023-04-02T21:58:46.728Z,1.50
2023-04-02T22:01:20.425Z,1.50
2023-04-02T22:03:53.282Z,1.33
2023-04-02T22:06:20.475Z,1.23
2023-04-02T22:08:48.021Z,1.10
2023-04-02T22:11:16.791Z,1.52
2023-04-02T22:13:43.960Z,1.38
2023-04-02T22:16:12.050Z,1.52
2023-04-02T22:18:39.098Z,0.90
2023-04-02T22:21:06.419Z,0.98
2023-04-02T22:23:32.939Z,1.42
2023-04-02T22:26:00.415Z,1.42
2023-04-02T22:28:27.460Z,1.05
2023-04-02T22:30:54.168Z,1.20
2023-04-02T22:33:20.865Z,1.40
2023-04-02T22:35:51.736Z,0.95
2023-04-02T22:38:18.896Z,1.60
2023-04-02T22:40:45.476Z,1.27
2023-04-02T22:43:11.958Z,1.65
2023-04-02T22:45:38.475Z,1.75
2023-04-02T22:48:05.053Z,1.85
2023-04-02T22:50:31.535Z,1.58
2023-04-02T22:52:58.111Z,1.67
2023-04-02T22:55:24.587Z,2.17
2023-04-02T22:57:51.126Z,1.73
2023-04-02T23:00:20.434Z,1.92
2023-04-02T23:02:47.162Z,1.88
2023-04-02T23:05:13.693Z,2.45
2023-04-02T23:07:40.540Z,2.10
2023-04-02T23:10:07.302Z,2.45
2023-04-02T23:12:33.922Z,2.42
2023-04-02T23:15:02.170Z,1.85
2023-04-02T23:17:28.802Z,2.63
2023-04-02T23:19:55.329Z,2.63
2023-04-02T23:22:21.800Z,2.15
2023-04-02T23:24:48.423Z,2.50
2023-04-02T23:27:15.058Z,2.42
2023-04-02T23:29:41.556Z,2.50
2023-04-02T23:32:08.096Z,2.35
2023-04-02T23:34:34.532Z,2.60
2023-04-02T23:37:01.100Z,2.60
2023-04-02T23:39:27.743Z,2.42
2023-04-02T23:41:54.252Z,2.10
2023-04-02T23:44:20.824Z,2.42
2023-04-02T23:46:47.467Z,2.55
2023-04-02T23:49:13.969Z,2.38
2023-04-02T23:51:40.930Z,2.50
2023-04-02T23:54:07.596Z,2.08
2023-04-02T23:56:34.243Z,2.67
2023-04-02T23:59:00.897Z,2.55
